Time;durP1;ratioP1;P1;durP2;ratioP2;P2;SDS_P1;SDS_P2;PMS_P1;PMS_P2;Temp;Humidity;BMP_temperature;BMP_pressure;BME280_temperature;BME280_humidity;BME280_pressure;Samples;Min_cycle;Max_cycle;Signal;HPM_P1;HPM_P2
2022/03/18 00:00:21;;;;;;;12.07;9.20;;;4.40;1.40;;;5.28;100.00;96721.22;646363;212;42340;-75
2022/03/18 00:03:03;;;;;;;10.57;7.35;;;4.40;1.40;;;5.29;100.00;96724.05;647499;216;43464;-75
2022/03/18 00:05:44;;;;;;;12.80;8.43;;;4.40;1.40;;;5.27;100.00;96723.73;619071;222;31943;-76
2022/03/18 00:08:27;;;;;;;9.43;7.12;;;4.30;1.40;;;5.22;100.00;96723.41;647610;212;31585;-76
2022/03/18 00:11:09;;;;;;;9.50;6.68;;;4.20;1.40;;;5.18;100.00;96723.47;647065;216;31646;-75
2022/03/18 00:13:51;;;;;;;7.18;6.10;;;4.20;1.40;;;5.18;100.00;96725.47;647139;216;31616;-74
2022/03/18 00:16:33;;;;;;;10.40;6.70;;;4.20;1.40;;;5.20;100.00;96719.97;646521;216;31755;-75
2022/03/18 00:19:14;;;;;;;9.02;5.95;;;4.20;1.40;;;5.16;100.00;96719.94;647040;216;42531;-75
2022/03/18 00:22:01;;;;;;;7.72;6.55;;;4.10;1.40;;;5.12;100.00;96723.95;646313;216;31583;-76
2022/03/18 00:24:39;;;;;;;6.80;5.83;;;4.10;1.40;;;5.08;100.00;96724.28;646786;216;31581;-75
2022/03/18 00:27:21;;;;;;;9.93;7.07;;;4.10;1.40;;;5.06;100.00;96727.00;647481;216;42128;-76
2022/03/18 00:30:03;;;;;;;9.82;6.25;;;4.10;1.40;;;5.08;100.00;96726.92;619078;226;42585;-76
2022/03/18 00:32:48;;;;;;;8.98;6.40;;;4.10;1.40;;;5.06;100.00;96731.41;647948;212;31770;-75
2022/03/18 00:35:51;;;;;;;11.23;6.32;;;4.10;1.40;;;5.01;100.00;96728.97;647310;216;31651;-76
2022/03/18 00:38:34;;;;;;;12.10;6.65;;;4.10;1.40;;;4.98;100.00;96734.70;646962;212;31537;-76
2022/03/18 00:41:15;;;;;;;9.15;8.25;;;3.90;1.40;;;4.89;100.00;96733.66;620280;222;42545;-77
2022/03/18 00:43:57;;;;;;;8.73;6.85;;;3.90;1.40;;;4.84;100.00;96726.67;619976;226;31921;-76
2022/03/18 00:46:41;;;;;;;10.32;6.43;;;3.80;1.40;;;4.74;100.00;96733.20;645659;212;42795;-76
2022/03/18 00:52:14;;;;;;;6.22;5.57;;;3.60;1.40;;;4.58;100.00;96732.38;619303;222;42895;-75
2022/03/18 00:54:52;;;;;;;8.80;6.35;;;3.60;1.40;;;4.50;100.00;96733.98;646389;216;31603;-74
2022/03/18 00:57:34;;;;;;;9.45;6.80;;;3.50;1.40;;;4.37;100.00;96734.69;646901;216;31540;-76
2022/03/18 01:00:17;;;;;;;8.73;5.85;;;3.40;1.40;;;4.40;100.00;96735.44;646277;216;32079;-76
2022/03/18 01:03:03;;;;;;;6.60;3.90;;;3.50;1.40;;;4.37;100.00;96733.12;619374;222;31883;-76
2022/03/18 01:05:44;;;;;;;8.40;7.32;;;3.40;1.40;;;4.29;100.00;96735.14;646698;212;31565;-75
2022/03/18 01:08:26;;;;;;;10.35;6.43;;;3.40;1.40;;;4.37;100.00;96732.11;609570;226;32350;-76
2022/03/18 01:11:08;;;;;;;8.48;7.72;;;3.60;1.40;;;4.39;100.00;96735.85;646041;212;31856;-76
2022/03/18 01:13:50;;;;;;;8.52;7.00;;;3.50;1.40;;;4.33;100.00;96736.86;647868;216;31604;-76
2022/03/18 01:16:32;;;;;;;15.23;6.57;;;3.50;1.40;;;4.38;100.00;96735.94;646675;216;31636;-78
2022/03/18 01:19:14;;;;;;;8.55;6.22;;;3.50;1.40;;;4.40;100.00;96730.25;646944;215;31609;-76
2022/03/18 01:21:56;;;;;;;9.30;6.20;;;3.50;1.40;;;4.39;100.00;96733.55;647532;216;32725;-75
2022/03/18 01:24:37;;;;;;;11.98;6.97;;;3.50;1.40;;;4.47;100.00;96729.47;646987;216;31511;-76
2022/03/18 01:27:20;;;;;;;10.90;6.00;;;3.60;1.40;;;4.50;100.00;96732.27;646545;216;32127;-75
2022/03/18 01:30:02;;;;;;;7.97;4.35;;;3.60;1.40;;;4.53;100.00;96732.66;647327;216;32186;-76
2022/03/18 01:32:45;;;;;;;12.30;6.90;;;3.60;1.40;;;4.56;100.00;96732.25;646067;212;31502;-75
2022/03/18 01:35:51;;;;;;;7.90;4.78;;;3.60;1.40;;;4.50;100.00;96731.52;646271;212;31609;-76
2022/03/18 01:38:33;;;;;;;9.95;7.00;;;3.60;1.40;;;4.50;100.00;96732.75;619955;225;31930;-76
2022/03/18 01:41:15;;;;;;;7.72;5.70;;;3.60;1.40;;;4.51;100.00;96728.58;647063;216;31619;-76
2022/03/18 01:43:57;;;;;;;7.53;5.55;;;3.60;1.40;;;4.57;100.00;96733.39;646914;212;31577;-76
2022/03/18 01:49:16;;;;;;;8.18;5.65;;;3.60;1.40;;;4.61;100.00;96732.99;645931;212;31654;-76
2022/03/18 01:52:00;;;;;;;10.40;6.45;;;3.70;1.40;;;4.58;100.00;96731.41;646788;216;31576;-76
2022/03/18 01:54:44;;;;;;;8.93;7.00;;;3.60;1.40;;;4.57;100.00;96734.52;647389;212;31646;-74
2022/03/18 01:57:29;;;;;;;6.75;5.68;;;3.60;1.40;;;4.58;100.00;96735.28;647889;212;31555;-75
2022/03/18 02:00:13;;;;;;;7.25;5.85;;;3.70;1.40;;;4.61;100.00;96736.81;633661;221;31871;-76
2022/03/18 02:02:55;;;;;;;7.65;5.43;;;3.70;1.40;;;4.65;100.00;96733.23;619984;226;32051;-76
2022/03/18 02:05:36;;;;;;;9.77;6.10;;;3.60;1.40;;;4.63;100.00;96737.72;635010;220;42573;-74
2022/03/18 02:08:18;;;;;;;9.57;5.95;;;3.70;1.40;;;4.65;100.00;96741.13;635513;216;42379;-76
2022/03/18 02:10:59;;;;;;;7.50;5.20;;;3.70;1.40;;;4.61;100.00;96745.66;631728;222;31768;-75
2022/03/18 02:13:41;;;;;;;8.65;5.80;;;3.60;1.40;;;4.60;100.00;96743.71;646442;212;31668;-76
2022/03/18 02:16:23;;;;;;;8.30;5.50;;;3.60;1.40;;;4.57;100.00;96744.25;648095;212;31729;-76
2022/03/18 02:19:04;;;;;;;9.63;6.25;;;3.60;1.40;;;4.54;100.00;96745.08;648295;212;31929;-76
2022/03/18 02:21:46;;;;;;;6.47;4.57;;;3.50;1.40;;;4.50;100.00;96748.10;646799;216;31781;-75
2022/03/18 02:24:28;;;;;;;7.82;5.30;;;3.50;1.40;;;4.45;100.00;96747.42;646749;216;31618;-75
2022/03/18 02:27:11;;;;;;;9.15;5.43;;;3.50;1.40;;;4.40;100.00;96747.42;647602;212;31704;-75
2022/03/18 02:29:53;;;;;;;9.05;6.00;;;3.40;1.40;;;4.43;100.00;96741.75;619688;223;32015;-76
2022/03/18 02:32:36;;;;;;;9.68;7.25;;;3.40;1.40;;;4.47;100.00;96747.83;619457;222;32027;-76
2022/03/18 02:35:53;;;;;;;6.95;4.70;;;3.50;1.40;;;4.40;100.00;96749.16;646413;216;31522;-75
2022/03/18 02:38:36;;;;;;;9.70;5.95;;;3.50;1.40;;;4.39;100.00;96747.34;647798;216;31613;-77
2022/03/18 02:41:17;;;;;;;10.00;6.50;;;3.50;1.40;;;4.39;100.00;96750.19;653234;212;23441;-75
2022/03/18 02:43:59;;;;;;;6.45;5.65;;;3.50;1.40;;;4.40;100.00;96748.33;647622;216;31791;-76
2022/03/18 02:46:41;;;;;;;7.22;5.90;;;3.40;1.40;;;4.39;100.00;96755.50;646527;212;31649;-75
2022/03/18 02:49:26;;;;;;;8.35;6.05;;;3.40;1.40;;;4.39;100.00;96748.27;647444;216;31687;-77
2022/03/18 02:52:09;;;;;;;6.37;5.55;;;3.40;1.40;;;4.36;100.00;96752.23;646250;216;31541;-76
2022/03/18 02:54:51;;;;;;;8.85;5.20;;;3.30;1.40;;;4.31;100.00;96751.50;647036;212;31754;-76
2022/03/18 02:57:36;;;;;;;12.20;5.50;;;3.10;1.40;;;4.09;100.00;96756.75;619220;225;31885;-75
2022/03/18 03:00:18;;;;;;;9.20;5.50;;;3.00;1.40;;;3.97;100.00;96751.48;647945;212;31588;-76
2022/03/18 03:03:03;;;;;;;8.18;5.05;;;3.00;1.40;;;3.89;100.00;96756.47;646393;216;31681;-75
2022/03/18 03:08:35;;;;;;;7.72;6.62;;;3.00;1.40;;;3.84;100.00;96750.54;619211;226;33266;-75
2022/03/18 03:11:23;;;;;;;10.23;7.93;;;3.00;1.40;;;3.80;100.00;96752.95;648759;212;31534;-76
2022/03/18 03:17:05;;;;;;;7.57;6.28;;;2.90;1.40;;;3.71;100.00;96763.02;632489;221;31685;-77
2022/03/18 03:19:57;;;;;;;5.25;4.75;;;2.80;1.40;;;3.64;100.00;96764.28;646730;216;31610;-77
2022/03/18 03:22:38;;;;;;;11.48;7.68;;;2.80;1.40;;;3.62;100.00;96765.70;646422;216;31563;-77
2022/03/18 03:25:33;;;;;;;7.20;6.50;;;2.70;1.40;;;3.60;100.00;96767.12;650558;214;31767;-76
2022/03/18 03:28:21;;;;;;;9.00;6.60;;;2.70;1.40;;;3.55;100.00;96770.03;645713;216;31585;-76
2022/03/18 03:31:03;;;;;;;7.55;4.62;;;2.70;1.40;;;3.56;100.00;96774.30;646152;212;31543;-75
2022/03/18 03:36:28;;;;;;;7.57;5.10;;;2.70;1.40;;;3.55;100.00;96779.32;653831;212;31838;-77
2022/03/18 03:39:16;;;;;;;10.07;3.80;;;2.80;1.40;;;3.58;100.00;96780.05;621787;222;32105;-77
2022/03/18 03:41:57;;;;;;;9.48;5.95;;;2.80;1.40;;;3.63;100.00;96782.36;648609;216;31565;-77
2022/03/18 03:44:42;;;;;;;7.20;6.07;;;2.80;1.40;;;3.63;100.00;96777.44;647873;212;31547;-77
2022/03/18 03:47:24;;;;;;;8.93;3.92;;;2.90;1.40;;;3.70;100.00;96779.97;632602;217;31678;-77
2022/03/18 03:50:11;;;;;;;6.80;6.10;;;3.00;1.40;;;3.75;100.00;96781.69;651471;216;31687;-76
2022/03/18 03:53:09;;;;;;;11.87;7.67;;;3.00;1.40;;;3.78;100.00;96787.72;619239;224;32002;-76
2022/03/18 03:55:54;;;;;;;7.72;4.97;;;3.00;1.40;;;3.76;100.00;96787.55;623727;225;42572;-76
2022/03/18 03:58:49;;;;;;;6.25;5.75;;;3.00;1.40;;;3.83;100.00;96793.39;629271;222;31909;-76
2022/03/18 04:01:33;;;;;;;7.80;6.35;;;2.90;1.40;;;3.86;100.00;96794.70;648810;216;31953;-75
2022/03/18 04:04:23;;;;;;;7.05;4.82;;;2.90;1.40;;;3.99;100.00;96801.27;626318;224;31885;-77
2022/03/18 04:07:05;;;;;;;7.63;4.20;;;2.90;1.40;;;3.91;100.00;96806.81;642646;216;31750;-76
2022/03/18 04:09:49;;;;;;;7.17;5.47;;;2.90;1.40;;;3.91;100.00;96808.37;648160;212;36866;-77
2022/03/18 04:12:29;;;;;;;6.20;5.62;;;2.90;1.40;;;4.01;100.00;96814.80;648622;216;31566;-77
2022/03/18 04:15:23;;;;;;;5.55;5.05;;;2.90;1.40;;;4.02;100.00;96821.90;619970;222;32181;-75
2022/03/18 04:18:07;;;;;;;7.45;4.70;;;2.90;1.40;;;4.03;100.00;96825.52;649578;212;31577;-75
2022/03/18 04:20:54;;;;;;;9.32;6.40;;;2.90;1.40;;;4.04;100.00;96831.72;646813;216;31577;-76
2022/03/18 04:23:36;;;;;;;6.53;4.72;;;2.90;1.40;;;4.00;100.00;96830.45;619895;222;32046;-75
2022/03/18 04:26:18;;;;;;;6.00;5.07;;;2.90;1.40;;;3.96;100.00;96834.03;645238;216;31614;-76
2022/03/18 04:35:53;;;;;;;6.90;4.15;;;2.90;1.40;;;3.90;100.00;96845.55;650473;212;31557;-76
2022/03/18 04:38:36;;;;;;;5.37;4.70;;;2.90;1.40;;;3.82;100.00;96846.41;649799;212;31494;-77
2022/03/18 04:41:24;;;;;;;16.70;6.65;;;2.90;1.40;;;3.76;100.00;96853.53;644990;216;31646;-76
2022/03/18 04:54:41;;;;;;;7.07;5.05;;;2.60;1.40;;;3.42;100.00;96864.60;645890;216;32180;-75
2022/03/18 04:57:26;;;;;;;9.70;4.37;;;2.60;1.40;;;3.40;100.00;96865.30;648013;216;31566;-77
2022/03/18 05:00:12;;;;;;;6.10;5.50;;;2.60;1.40;;;3.41;100.00;96869.18;645239;214;32473;-76
2022/03/18 05:02:56;;;;;;;10.48;6.50;;;2.60;1.40;;;3.39;100.00;96867.14;647017;216;31628;-76
2022/03/18 05:05:40;;;;;;;7.12;4.68;;;2.60;1.40;;;3.40;100.00;96870.70;634852;217;31691;-76
2022/03/18 05:08:24;;;;;;;7.53;5.70;;;2.60;1.40;;;3.39;100.00;96868.43;638951;212;31826;-76
2022/03/18 05:11:12;;;;;;;10.98;6.20;;;2.60;1.40;;;3.41;100.00;96871.21;621292;226;32039;-77
2022/03/18 05:13:55;;;;;;;11.95;6.75;;;2.60;1.40;;;3.45;100.00;96871.48;622671;226;33009;-76
2022/03/18 05:16:38;;;;;;;8.30;4.60;;;2.60;1.40;;;3.45;100.00;96873.41;650082;212;31567;-77
2022/03/18 05:19:20;;;;;;;10.48;6.60;;;2.60;1.40;;;3.44;100.00;96874.25;623110;226;31904;-77
2022/03/18 05:22:04;;;;;;;10.07;6.30;;;2.60;1.40;;;3.49;100.00;96878.56;648950;216;31561;-75
2022/03/18 05:36:00;;;;;;;7.70;5.80;;;2.90;1.40;;;3.85;100.00;96898.78;646279;216;31703;-77
2022/03/18 05:38:53;;;;;;;11.90;6.25;;;2.90;1.40;;;3.88;100.00;96902.95;647832;216;31609;-76
2022/03/18 05:41:44;;;;;;;7.68;5.40;;;3.00;1.40;;;3.97;100.00;96902.27;646731;212;31536;-77
2022/03/18 06:16:19;;;;;;;8.65;7.20;;;4.10;1.40;;;5.35;100.00;96928.39;619971;222;31940;-77
2022/03/18 06:19:02;;;;;;;11.57;7.40;;;4.30;1.40;;;5.48;100.00;96929.05;620048;222;32254;-77
2022/03/18 06:21:43;;;;;;;12.30;9.63;;;4.30;1.40;;;5.54;100.00;96936.33;647417;216;31647;-76
2022/03/18 06:24:45;;;;;;;10.38;7.10;;;4.40;1.40;;;5.76;100.00;96935.73;647379;212;31508;-76
2022/03/18 06:27:28;;;;;;;13.57;6.93;;;4.50;1.40;;;6.03;100.00;96937.72;644813;221;23496;-75
2022/03/18 06:30:27;;;;;;;9.13;6.15;;;4.70;1.40;;;6.13;100.00;96943.14;644954;212;31823;-77
2022/03/18 06:35:55;;;;;;;10.15;7.80;;;4.80;1.40;;;6.30;100.00;96952.40;619702;225;31965;-76
2022/03/18 06:38:48;;;;;;;6.55;5.93;;;4.90;1.40;;;6.31;100.00;96956.07;648989;212;31546;-75
2022/03/18 06:52:15;;;;;;;12.32;7.95;;;5.50;1.40;;;6.58;100.00;96981.20;649189;216;31803;-76
2022/03/18 07:05:48;;;;;;;12.27;7.93;;;6.20;1.40;;;7.19;100.00;96997.39;630581;215;31808;-77
2022/03/18 07:08:30;;;;;;;9.15;7.78;;;6.30;1.40;;;7.48;100.00;96997.54;611538;226;32038;-77
2022/03/18 07:32:14;;;;;;;12.32;9.85;;;6.40;1.40;;;7.29;100.00;97015.14;647868;216;31564;-77
2022/03/18 07:35:52;;;;;;;12.32;9.52;;;6.30;1.40;;;7.35;100.00;97018.03;646749;212;32173;-78
2022/03/18 07:38:39;;;;;;;10.88;8.50;;;6.50;1.40;;;7.60;100.00;97022.28;646347;212;31765;-76
2022/03/18 07:41:25;;;;;;;10.77;9.10;;;6.60;1.40;;;7.90;100.00;97020.83;619075;226;32086;-77
2022/03/18 07:44:07;;;;;;;8.93;7.62;;;6.60;1.40;;;8.29;100.00;97023.03;648471;216;31524;-78
2022/03/18 07:46:49;;;;;;;9.37;8.33;;;6.80;1.40;;;8.03;100.00;97021.97;648015;212;31611;-76
2022/03/18 07:49:34;;;;;;;9.93;8.70;;;6.80;1.40;;;8.43;100.00;97024.12;620185;222;43258;-78
2022/03/18 07:52:15;;;;;;;10.47;7.60;;;7.00;1.40;;;8.65;100.00;97027.66;619728;222;31940;-78
2022/03/18 07:55:04;;;;;;;10.37;8.63;;;7.20;1.40;;;8.51;100.00;97033.08;617523;224;31911;-79
2022/03/18 07:57:46;;;;;;;9.32;7.45;;;7.20;1.40;;;8.69;100.00;97033.97;621219;225;31915;-80
2022/03/18 08:00:34;;;;;;;14.75;8.35;;;7.30;1.40;;;8.32;100.00;97036.37;650046;216;31563;-78
2022/03/18 08:03:20;;;;;;;12.23;8.85;;;7.40;1.40;;;8.95;100.00;97042.91;646792;216;31853;-78
2022/03/18 08:06:08;;;;;;;15.30;8.50;;;7.70;1.40;;;8.76;100.00;97043.06;647577;212;31594;-78
2022/03/18 08:08:51;;;;;;;9.48;8.45;;;7.60;1.40;;;9.10;100.00;97049.39;620045;226;32011;-78
2022/03/18 08:11:32;;;;;;;15.63;9.13;;;7.70;1.40;;;9.42;100.00;97047.96;647812;216;31677;-78
2022/03/18 08:14:14;;;;;;;13.80;10.03;;;7.90;1.40;;;9.61;100.00;97049.17;647271;212;31676;-78
2022/03/18 08:16:56;;;;;;;12.73;8.97;;;8.10;1.40;;;9.38;100.00;97055.23;647290;216;31589;-77
2022/03/18 08:19:39;;;;;;;12.53;8.80;;;8.20;1.40;;;9.47;100.00;97060.34;646928;212;31704;-77
2022/03/18 08:22:30;;;;;;;12.47;7.90;;;8.30;1.40;;;9.54;100.00;97060.38;646791;212;31586;-78
2022/03/18 08:25:12;;;;;;;13.38;9.63;;;8.40;1.40;;;10.12;100.00;97060.94;627822;220;32248;-78
2022/03/18 08:27:58;;;;;;;12.63;8.50;;;8.50;1.40;;;10.41;100.00;97058.93;649387;214;31601;-76
2022/03/18 08:30:40;;;;;;;9.50;8.30;;;9.00;1.40;;;9.83;100.00;97064.42;648595;216;31554;-78
2022/03/18 08:35:52;;;;;;;12.43;9.38;;;8.60;1.40;;;9.73;100.00;97069.00;648893;212;31901;-79
2022/03/18 08:51:50;;;;;;;11.70;9.15;;;10.40;1.40;;;12.13;92.00;97069.95;647019;212;31848;-78
2022/03/18 08:54:36;;;;;;;13.77;8.80;;;10.90;1.40;;;12.08;92.96;97070.97;649219;216;42193;-78
2022/03/18 08:57:18;;;;;;;11.53;8.47;;;10.60;1.40;;;11.86;87.61;97077.70;648796;212;31580;-77
2022/03/18 09:00:05;;;;;;;14.10;9.38;;;10.50;1.40;;;11.81;94.55;97077.81;648495;212;32159;-78
2022/03/18 09:02:44;;;;;;;10.48;7.55;;;10.80;1.40;;;12.78;88.06;97077.25;648999;212;31619;-78
2022/03/18 09:05:26;;;;;;;12.93;9.25;;;11.30;1.40;;;13.46;83.55;97084.38;647524;212;31994;-78
2022/03/18 09:08:09;;;;;;;11.35;8.80;;;11.80;1.40;;;14.14;79.36;97082.70;635759;216;33876;-77
2022/03/18 09:10:50;;;;;;;13.50;8.80;;;12.60;1.40;;;15.75;78.81;97080.70;620266;222;32240;-76
2022/03/18 09:13:36;;;;;;;11.38;8.80;;;15.10;1.40;;;16.52;67.53;97079.20;647265;216;31668;-77
2022/03/18 09:16:18;;;;;;;11.38;9.40;;;15.70;1.40;;;17.88;62.69;97082.10;647760;216;31598;-77
2022/03/18 09:19:18;;;;;;;14.25;9.13;;;15.80;1.40;;;17.34;58.68;97076.27;649671;212;31651;-78
2022/03/18 09:22:16;;;;;;;15.23;10.25;;;14.80;1.40;;;15.96;66.76;97085.52;649089;212;31614;-78
2022/03/18 09:25:03;;;;;;;10.98;8.02;;;14.40;1.40;;;17.50;56.74;97086.23;648489;212;31734;-77
2022/03/18 09:27:47;;;;;;;12.20;9.20;;;14.90;1.40;;;18.16;57.26;97091.08;647264;216;32281;-76
2022/03/18 09:30:33;;;;;;;12.05;8.55;;;15.50;1.40;;;18.91;57.21;97086.97;647739;216;32078;-77
2022/03/18 09:35:53;;;;;;;11.20;8.68;;;16.40;1.40;;;19.53;54.11;97090.48;619963;222;32033;-79
2022/03/18 09:38:38;;;;;;;11.70;8.73;;;16.50;1.40;;;19.55;51.70;97094.20;648731;212;31699;-78
2022/03/18 09:41:29;;;;;;;11.67;9.00;;;16.30;1.40;;;19.18;49.27;97098.41;648356;212;32900;-78
2022/03/18 09:44:12;;;;;;;12.32;8.90;;;15.10;1.40;;;19.05;53.73;97102.04;646990;212;31714;-78
2022/03/18 09:47:01;;;;;;;12.05;8.43;;;15.40;1.40;;;18.84;50.21;97105.03;646254;212;31693;-77
2022/03/18 09:49:45;;;;;;;10.40;8.75;;;15.00;1.40;;;19.17;51.80;97099.59;620267;226;32115;-76
2022/03/18 09:52:32;;;;;;;12.88;9.27;;;15.30;1.40;;;18.70;53.41;97105.78;619534;222;32267;-78
2022/03/18 09:55:14;;;;;;;11.68;9.77;;;15.40;1.40;;;15.41;52.89;97112.44;616509;226;31983;-77
2022/03/18 09:57:56;;;;;;;13.85;9.05;;;13.30;1.40;;;14.31;56.93;97117.02;619730;226;32081;-79
2022/03/18 10:00:41;;;;;;;11.93;8.35;;;12.00;1.40;;;14.40;62.27;97120.19;646885;216;31594;-78
2022/03/18 10:03:22;;;;;;;11.48;8.00;;;13.60;1.40;;;17.21;54.68;97111.02;647656;216;31548;-77
2022/03/18 10:06:04;;;;;;;13.75;9.20;;;15.30;1.40;;;18.95;50.42;97109.34;619397;226;31895;-77
2022/03/18 10:08:50;;;;;;;10.45;8.02;;;16.50;1.40;;;20.54;46.57;97111.58;620184;222;43211;-77
2022/03/18 10:11:32;;;;;;;12.15;9.30;;;17.20;1.40;;;20.81;45.89;97114.33;646064;212;31619;-77
2022/03/18 10:14:16;;;;;;;11.18;9.35;;;17.40;1.40;;;21.35;43.36;97116.58;646562;212;31637;-77
2022/03/18 10:17:02;;;;;;;12.02;8.45;;;17.80;1.40;;;19.60;43.89;97122.88;619666;223;32246;-77
2022/03/18 10:19:44;;;;;;;12.67;9.70;;;16.50;1.40;;;20.62;44.81;97113.34;647090;216;31946;-77
2022/03/18 10:22:23;;;;;;;11.40;9.60;;;17.00;1.40;;;22.45;43.03;97115.69;647384;216;31613;-78
2022/03/18 10:25:07;;;;;;;11.98;9.15;;;18.20;1.40;;;21.51;43.55;97115.31;650517;216;31748;-78
2022/03/18 10:27:55;;;;;;;12.52;8.77;;;18.00;1.40;;;22.21;39.09;97114.02;649973;212;31660;-77
2022/03/18 10:30:36;;;;;;;13.45;10.32;;;18.70;1.40;;;18.60;44.01;97120.80;650022;216;31667;-76
2022/03/18 10:38:41;;;;;;;12.32;9.52;;;18.10;1.40;;;20.94;39.84;97110.42;647291;216;31694;-76
2022/03/18 10:41:24;;;;;;;11.10;8.93;;;18.10;1.40;;;18.84;40.59;97114.32;646915;216;31556;-77
2022/03/18 10:44:09;;;;;;;10.40;9.20;;;16.50;1.40;;;14.83;46.84;97123.20;620425;226;32479;-77
2022/03/18 10:46:53;;;;;;;9.70;8.65;;;13.00;1.40;;;16.77;46.54;97122.52;619738;226;32016;-77
2022/03/18 10:49:32;;;;;;;12.30;8.90;;;15.00;1.40;;;16.05;44.13;97123.82;647561;216;31659;-78
2022/03/18 10:52:14;;;;;;;10.57;8.52;;;14.10;1.40;;;16.74;46.91;97121.33;621356;226;32154;-77
2022/03/18 10:54:58;;;;;;;12.17;8.37;;;15.90;1.40;;;15.98;44.42;97125.22;647751;212;31614;-78
2022/03/18 10:57:38;;;;;;;10.38;8.13;;;15.30;1.40;;;19.72;39.93;97117.20;646966;212;32216;-76
2022/03/18 11:00:20;;;;;;;11.95;8.85;;;17.00;1.40;;;20.99;38.12;97117.87;620244;226;42550;-77
2022/03/18 11:03:02;;;;;;;9.77;8.02;;;17.50;1.40;;;22.17;37.48;97110.74;647149;216;31707;-78
2022/03/18 11:05:50;;;;;;;9.90;7.53;;;19.10;1.40;;;23.40;33.91;97113.23;619437;222;35176;-76
2022/03/18 11:08:35;;;;;;;9.88;7.50;;;18.70;1.40;;;23.56;33.01;97117.70;646948;212;41219;-76
2022/03/18 11:11:17;;;;;;;10.45;7.85;;;18.50;1.40;;;23.15;33.72;97116.30;619529;226;32641;-76
2022/03/18 11:14:02;;;;;;;10.88;8.88;;;16.80;1.40;;;21.81;35.22;97118.23;647342;212;32064;-76
2022/03/18 11:16:43;;;;;;;9.60;7.60;;;15.90;1.40;;;21.53;36.95;97125.08;646959;216;31775;-76
2022/03/18 11:19:24;;;;;;;9.13;7.57;;;16.60;1.40;;;20.77;36.15;97125.95;646019;216;31593;-77
2022/03/18 11:22:06;;;;;;;10.20;8.48;;;16.90;1.40;;;21.48;36.75;97127.36;647205;216;31556;-76
2022/03/18 11:24:48;;;;;;;11.35;8.80;;;17.30;1.40;;;21.21;36.79;97128.11;619439;226;32412;-76
2022/03/18 11:27:29;;;;;;;14.25;9.48;;;16.80;1.40;;;20.68;37.66;97126.39;646189;212;32227;-76
2022/03/18 11:30:23;;;;;;;10.82;8.80;;;16.80;1.40;;;21.91;36.86;97128.86;631537;221;34934;-77
2022/03/18 11:38:51;;;;;;;11.40;8.30;;;18.10;1.40;;;22.87;35.82;97120.80;642587;219;31704;-76
2022/03/18 11:41:44;;;;;;;14.98;10.05;;;18.00;1.40;;;22.04;34.65;97122.61;647743;216;31586;-77
2022/03/18 11:44:40;;;;;;;11.12;9.13;;;18.50;1.40;;;23.55;33.80;97120.20;648004;216;31573;-77
2022/03/18 11:47:38;;;;;;;13.05;9.68;;;18.80;1.40;;;22.71;34.66;97126.80;618916;226;43313;-77
2022/03/18 11:50:45;;;;;;;15.13;9.25;;;18.70;1.40;;;24.03;33.84;97125.55;645982;216;31609;-78
2022/03/18 11:53:51;;;;;;;13.55;9.50;;;19.10;1.40;;;26.10;31.99;97116.59;646889;216;31653;-77
2022/03/18 11:56:48;;;;;;;13.25;9.45;;;20.50;1.40;;;26.46;31.21;97117.23;647883;212;31559;-77
2022/03/18 11:59:43;;;;;;;10.60;8.60;;;21.60;1.40;;;27.56;30.43;97117.66;619491;222;32176;-77
2022/03/18 12:02:22;;;;;;;10.48;8.85;;;22.10;1.40;;;21.46;34.83;97124.12;648391;213;31603;-77
2022/03/18 12:05:09;;;;;;;14.70;10.10;;;18.40;1.40;;;22.56;34.17;97122.40;646632;216;31644;-79
2022/03/18 12:07:54;;;;;;;11.32;9.25;;;18.60;1.40;;;20.75;36.94;97131.83;637262;215;31773;-77
2022/03/18 12:10:39;;;;;;;11.98;8.88;;;17.80;1.40;;;24.06;31.99;97121.45;647097;212;31584;-76
2022/03/18 12:13:22;;;;;;;10.82;8.63;;;19.50;1.40;;;24.61;30.91;97111.92;646956;212;32120;-76
2022/03/18 12:16:04;;;;;;;11.15;9.52;;;20.20;1.40;;;24.15;32.19;97119.26;647470;212;31836;-76
2022/03/18 12:18:46;;;;;;;10.70;9.50;;;18.20;1.40;;;21.31;33.68;97126.25;620003;226;31943;-77
2022/03/18 12:21:34;;;;;;;13.10;9.60;;;16.70;1.40;;;22.35;32.97;97117.09;648566;216;31652;-77
2022/03/18 12:24:16;;;;;;;10.40;9.30;;;17.40;1.40;;;22.48;33.50;97117.09;643744;215;32295;-76
2022/03/18 12:26:57;;;;;;;14.30;9.30;;;17.60;1.40;;;22.71;32.29;97114.88;643343;215;31630;-77
2022/03/18 12:29:42;;;;;;;12.50;8.95;;;17.50;1.40;;;19.20;35.61;97123.76;647197;212;31587;-77
2022/03/18 12:32:23;;;;;;;10.23;8.93;;;15.30;1.40;;;19.25;36.71;97124.66;647223;212;31546;-77
2022/03/18 12:35:54;;;;;;;13.23;8.70;;;15.70;1.40;;;20.32;36.75;97114.56;616726;226;33073;-78
2022/03/18 12:38:35;;;;;;;12.05;8.10;;;16.20;1.40;;;18.76;36.27;97125.62;619281;222;32599;-78
2022/03/18 12:43:59;;;;;;;9.52;8.05;;;16.30;1.40;;;20.81;35.20;97112.34;648523;213;31656;-77
2022/03/18 12:46:41;;;;;;;10.95;7.20;;;17.00;1.40;;;20.23;35.90;97114.89;618495;222;31906;-77
2022/03/18 12:49:22;;;;;;;11.50;7.93;;;17.00;1.40;;;19.90;36.25;97116.23;647564;216;31615;-77
2022/03/18 12:52:09;;;;;;;9.48;7.32;;;16.60;1.40;;;21.14;35.09;97104.87;632453;222;31848;-77
2022/03/18 12:55:17;;;;;;;11.98;8.15;;;17.00;1.40;;;21.76;33.91;97104.58;651019;213;31956;-78
2022/03/18 12:57:59;;;;;;;9.63;7.47;;;17.00;1.40;;;20.53;34.78;97109.83;645372;220;22624;-77
2022/03/18 13:00:41;;;;;;;12.60;8.43;;;16.80;1.40;;;21.28;35.08;97108.77;647654;216;31620;-77
2022/03/18 13:03:26;;;;;;;9.40;7.95;;;17.40;1.40;;;22.42;33.68;97106.41;619193;222;31986;-77
2022/03/18 13:06:22;;;;;;;9.98;8.50;;;19.00;1.40;;;23.88;31.92;97107.72;615857;226;36253;-76
2022/03/18 13:09:09;;;;;;;11.65;8.13;;;19.00;1.40;;;22.73;31.69;97109.85;646894;216;31740;-76
2022/03/18 13:11:53;;;;;;;12.00;7.90;;;18.20;1.40;;;23.39;32.19;97107.70;621614;225;33590;-77
2022/03/18 13:14:36;;;;;;;11.03;8.50;;;19.10;1.40;;;23.28;31.77;97107.81;648240;212;42788;-77
2022/03/18 13:17:22;;;;;;;11.82;7.95;;;18.30;1.40;;;23.00;32.04;97101.14;648357;216;32456;-77
2022/03/18 13:20:04;;;;;;;11.10;8.15;;;17.10;1.40;;;19.55;35.40;97113.11;647303;214;31572;-77
2022/03/18 13:22:46;;;;;;;10.60;7.80;;;15.80;1.40;;;20.32;35.37;97108.12;647495;212;31568;-77
2022/03/18 13:25:34;;;;;;;13.07;8.70;;;17.00;1.40;;;21.57;33.78;97113.24;647305;216;31688;-75
2022/03/18 13:28:17;;;;;;;12.97;8.97;;;16.90;1.40;;;21.05;34.99;97108.08;646563;214;31680;-76
2022/03/18 13:35:57;;;;;;;11.48;9.23;;;18.30;1.40;;;22.84;31.98;97107.84;647199;216;31619;-76
2022/03/18 13:38:37;;;;;;;9.82;8.13;;;18.70;1.40;;;23.36;31.98;97112.62;619082;226;32308;-76
2022/03/18 13:41:27;;;;;;;11.55;8.10;;;18.10;1.40;;;23.00;32.05;97105.91;619640;226;32104;-76
2022/03/18 13:44:13;;;;;;;11.93;8.32;;;17.30;1.40;;;21.31;33.73;97107.55;647331;212;32104;-77
2022/03/18 13:46:58;;;;;;;10.03;8.10;;;17.20;1.40;;;22.02;33.89;97102.52;646742;212;31574;-76
2022/03/18 13:49:40;;;;;;;10.80;8.43;;;17.20;1.40;;;21.38;33.87;97106.03;619342;222;32538;-76
2022/03/18 13:52:22;;;;;;;10.53;8.43;;;16.20;1.40;;;21.32;34.30;97107.47;619831;226;36202;-76
2022/03/18 13:55:03;;;;;;;10.15;8.32;;;16.50;1.40;;;20.83;35.08;97111.12;646803;212;31880;-76
2022/03/18 13:57:46;;;;;;;12.70;8.45;;;17.50;1.40;;;21.29;34.67;97104.41;619321;226;31924;-76
2022/03/18 14:00:28;;;;;;;12.27;9.00;;;18.30;1.40;;;18.87;36.83;97121.00;647722;212;32209;-77
2022/03/18 14:03:11;;;;;;;10.73;8.40;;;16.30;1.40;;;20.03;36.31;97112.18;647408;212;31655;-77
2022/03/18 14:05:53;;;;;;;11.02;8.07;;;17.30;1.40;;;21.98;33.29;97104.55;646856;212;32113;-76
2022/03/18 14:08:39;;;;;;;10.27;8.48;;;17.90;1.40;;;21.87;33.33;97113.88;647068;216;31610;-76
2022/03/18 14:14:25;;;;;;;11.07;8.70;;;15.80;1.40;;;19.91;36.83;97112.10;648691;212;42580;-77
2022/03/18 14:17:19;;;;;;;8.55;7.65;;;16.60;1.40;;;17.86;37.22;97117.16;648654;212;31692;-76
2022/03/18 14:20:11;;;;;;;10.90;8.60;;;14.20;1.40;;;17.86;39.30;97112.48;618291;224;32525;-76